createdAt,value
2022-09-04T00:02:41.186Z,17.70
2022-09-04T00:05:22.015Z,14.70
2022-09-04T00:08:13.430Z,13.50
2022-09-04T00:10:56.348Z,18.50
2022-09-04T00:13:27.569Z,16.10
2022-09-04T00:15:59.556Z,17.30
2022-09-04T00:18:30.824Z,16.70
2022-09-04T00:21:11.961Z,16.00
2022-09-04T00:23:53.820Z,19.20
2022-09-04T00:26:41.341Z,15.20
2022-09-04T00:29:30.887Z,13.80
2022-09-04T00:32:24.942Z,17.70
2022-09-04T00:35:10.628Z,17.80
2022-09-04T00:37:40.019Z,21.60
2022-09-04T00:40:42.096Z,16.30
2022-09-04T00:43:38.241Z,19.30
2022-09-04T00:46:25.289Z,17.90
2022-09-04T00:49:11.709Z,17.00
2022-09-04T00:51:46.508Z,17.90
2022-09-04T00:54:47.140Z,21.90
2022-09-04T00:57:57.731Z,19.10
2022-09-04T01:00:26.981Z,21.60
2022-09-04T01:03:20.800Z,21.10
2022-09-04T01:06:05.484Z,20.20
2022-09-04T01:09:11.684Z,19.80
2022-09-04T01:11:52.911Z,22.60
2022-09-04T01:14:25.391Z,19.60
2022-09-04T01:17:02.144Z,17.20
2022-09-04T01:19:52.392Z,23.90
2022-09-04T01:22:30.141Z,21.90
2022-09-04T01:25:22.495Z,21.70
2022-09-04T01:28:18.663Z,19.10
2022-09-04T01:30:59.776Z,22.00
2022-09-04T01:33:54.891Z,19.00
2022-09-04T01:36:35.020Z,21.90
2022-09-04T01:39:01.996Z,18.00
2022-09-04T01:42:27.922Z,18.10
2022-09-04T01:44:54.660Z,18.90
2022-09-04T01:50:04.258Z,22.90
2022-09-04T01:52:50.227Z,24.30
2022-09-04T01:55:27.154Z,22.80
2022-09-04T01:57:58.336Z,20.60
2022-09-04T02:00:25.636Z,19.20
2022-09-04T02:03:22.470Z,21.30
2022-09-04T02:06:22.389Z,21.30
2022-09-04T02:08:51.830Z,19.60
2022-09-04T02:11:20.598Z,26.70
2022-09-04T02:14:15.731Z,19.90
2022-09-04T02:17:04.788Z,24.50
2022-09-04T02:19:34.566Z,18.90
2022-09-04T02:22:23.664Z,21.40
2022-09-04T02:25:15.139Z,18.60
2022-09-04T02:27:53.545Z,18.50
2022-09-04T02:30:20.571Z,21.30
2022-09-04T02:32:58.662Z,25.50
2022-09-04T02:35:41.647Z,20.20
2022-09-04T02:38:53.394Z,24.70
2022-09-04T02:41:38.876Z,19.80
2022-09-04T02:44:36.483Z,20.40
2022-09-04T02:48:38.164Z,22.90
2022-09-04T02:51:14.045Z,24.40
2022-09-04T02:53:51.574Z,23.20
2022-09-04T02:56:26.524Z,19.50
2022-09-04T02:58:57.750Z,19.90
2022-09-04T03:01:32.975Z,20.30
2022-09-04T03:04:49.984Z,23.10
2022-09-04T03:07:31.648Z,24.40
2022-09-04T03:10:11.688Z,24.70
2022-09-04T03:13:00.381Z,27.10
2022-09-04T03:15:35.041Z,25.40
2022-09-04T03:18:17.127Z,23.70
2022-09-04T03:20:58.131Z,20.20
2022-09-04T03:23:39.979Z,21.70
2022-09-04T03:26:31.791Z,20.40
2022-09-04T03:29:01.163Z,26.60
2022-09-04T03:31:49.195Z,20.90
2022-09-04T03:34:34.301Z,28.40
2022-09-04T03:37:04.862Z,21.90
2022-09-04T03:39:46.569Z,22.90
2022-09-04T03:42:20.705Z,25.40
2022-09-04T03:45:26.886Z,24.10
2022-09-04T03:48:08.352Z,23.00
2022-09-04T03:50:44.045Z,22.70
2022-09-04T03:53:35.838Z,18.90
2022-09-04T03:56:20.405Z,21.70
2022-09-04T03:59:02.593Z,23.60
2022-09-04T04:01:51.665Z,29.80
2022-09-04T04:04:37.054Z,25.80
2022-09-04T04:07:17.960Z,27.70
2022-09-04T04:10:03.683Z,24.80
2022-09-04T04:13:00.494Z,29.10
2022-09-04T04:15:50.461Z,28.40
2022-09-04T04:18:20.115Z,23.50
2022-09-04T04:21:10.570Z,30.50
2022-09-04T04:23:49.294Z,28.00
2022-09-04T04:26:21.774Z,22.70
2022-09-04T04:29:21.055Z,26.10
2022-09-04T04:32:11.690Z,21.60
2022-09-04T04:34:49.889Z,22.70
2022-09-04T04:37:43.495Z,23.50
2022-09-04T04:40:18.151Z,22.60
2022-09-04T04:42:53.396Z,21.40
2022-09-04T04:45:46.804Z,17.80
2022-09-04T04:48:26.563Z,20.50
2022-09-04T04:51:03.853Z,19.30
2022-09-04T04:53:51.690Z,21.30
2022-09-04T04:56:26.594Z,16.00
2022-09-04T04:59:20.655Z,19.10
2022-09-04T05:02:26.187Z,17.00
2022-09-04T05:04:58.191Z,15.40
2022-09-04T05:07:48.624Z,12.80
2022-09-04T05:10:18.583Z,13.40
2022-09-04T05:13:09.334Z,9.80
2022-09-04T05:16:05.167Z,11.40
2022-09-04T05:18:35.848Z,8.30
2022-09-04T05:21:08.899Z,14.00
2022-09-04T05:23:52.575Z,9.80
2022-09-04T05:26:43.696Z,6.40
2022-09-04T05:29:28.152Z,8.20
2022-09-04T05:32:02.836Z,15.10
2022-09-04T05:34:48.037Z,8.20
2022-09-04T05:37:33.225Z,7.60
2022-09-04T05:40:03.852Z,7.30
2022-09-04T05:42:33.728Z,7.30
2022-09-04T05:45:28.628Z,6.10
2022-09-04T05:48:09.943Z,8.80
2022-09-04T05:50:46.912Z,7.20
2022-09-04T05:56:23.623Z,5.70
2022-09-04T05:58:57.521Z,10.40
2022-09-04T06:01:36.017Z,11.00
2022-09-04T06:04:05.786Z,14.50
2022-09-04T06:06:40.798Z,8.50
2022-09-04T06:09:26.825Z,6.60
2022-09-04T06:12:10.370Z,10.90
2022-09-04T06:14:57.454Z,5.70
2022-09-04T06:18:18.631Z,5.70
2022-09-04T06:20:57.948Z,4.30
2022-09-04T06:23:43.443Z,5.00
2022-09-04T06:26:18.685Z,4.90
2022-09-04T06:29:15.294Z,4.00
2022-09-04T06:32:15.247Z,5.60
2022-09-04T06:35:16.846Z,3.70
2022-09-04T06:37:51.777Z,6.90
2022-09-04T06:40:29.239Z,8.00
2022-09-04T06:43:08.437Z,5.60
2022-09-04T06:46:02.398Z,5.70
2022-09-04T06:48:39.399Z,6.70
2022-09-04T06:51:36.552Z,5.20
2022-09-04T06:54:26.405Z,3.70
2022-09-04T06:57:31.303Z,4.70
2022-09-04T07:00:30.081Z,262.30
2022-09-04T07:03:02.536Z,15.30
2022-09-04T07:05:33.646Z,8.20
2022-09-04T07:08:27.583Z,5.40
2022-09-04T07:11:13.098Z,8.90
2022-09-04T07:14:20.189Z,6.30
2022-09-04T07:17:11.836Z,4.90
2022-09-04T07:19:56.794Z,4.60
2022-09-04T07:22:45.129Z,7.10
2022-09-04T07:25:44.315Z,5.70
2022-09-04T07:28:48.721Z,4.50
2022-09-04T07:31:47.912Z,7.70
2022-09-04T07:34:37.131Z,3.40
2022-09-04T07:37:09.418Z,11.00
2022-09-04T07:39:53.148Z,5.40
2022-09-04T07:42:46.890Z,4.80
2022-09-04T07:45:35.300Z,4.00
2022-09-04T07:48:11.223Z,4.40
2022-09-04T07:51:10.250Z,4.00
2022-09-04T07:54:02.038Z,4.30
2022-09-04T07:56:48.208Z,15.00
2022-09-04T07:59:27.367Z,4.90
2022-09-04T08:02:25.090Z,9.80
2022-09-04T08:05:17.709Z,7.80
2022-09-04T08:08:03.815Z,3.70
2022-09-04T08:11:08.155Z,3.40
2022-09-04T08:13:59.382Z,3.00
2022-09-04T08:16:41.203Z,6.00
2022-09-04T08:19:26.864Z,3.00
2022-09-04T08:21:53.645Z,3.60
2022-09-04T08:24:45.385Z,4.70
2022-09-04T08:27:47.810Z,3.20
2022-09-04T08:30:14.896Z,6.00
2022-09-04T08:33:18.412Z,5.50
2022-09-04T08:36:07.570Z,4.10
2022-09-04T08:39:07.613Z,6.10
2022-09-04T08:41:56.300Z,2.70
2022-09-04T08:44:44.842Z,2.60
2022-09-04T08:47:35.797Z,4.90
2022-09-04T08:50:39.102Z,3.80
2022-09-04T08:53:14.878Z,3.90
2022-09-04T08:56:06.362Z,7.40
2022-09-04T08:58:45.746Z,3.80
2022-09-04T09:01:49.841Z,3.10
2022-09-04T09:04:36.248Z,2.00
2022-09-04T09:07:16.411Z,3.90
2022-09-04T09:09:45.862Z,1.70
2022-09-04T09:12:57.672Z,3.90
2022-09-04T09:15:40.059Z,2.00
2022-09-04T09:18:25.438Z,2.70
2022-09-04T09:21:08.326Z,3.20
2022-09-04T09:23:39.032Z,6.30
2022-09-04T09:26:17.975Z,3.30
2022-09-04T09:28:50.703Z,1.40
2022-09-04T09:31:27.093Z,4.60
2022-09-04T09:34:30.602Z,14.90
2022-09-04T09:37:09.186Z,19.70
2022-09-04T09:39:35.970Z,3.70
2022-09-04T09:42:31.643Z,4.10
2022-09-04T09:45:41.175Z,4.10
2022-09-04T09:48:23.195Z,7.70
2022-09-04T09:51:14.596Z,7.20
2022-09-04T09:53:47.683Z,4.30
2022-09-04T09:56:35.888Z,2.20
2022-09-04T09:59:25.766Z,2.50
2022-09-04T10:02:38.402Z,3.20
2022-09-04T10:05:22.857Z,3.40
2022-09-04T10:08:01.384Z,2.00
2022-09-04T10:10:40.770Z,4.70
2022-09-04T10:13:28.992Z,5.40
2022-09-04T10:16:16.004Z,2.60
2022-09-04T10:19:07.279Z,4.60
2022-09-04T10:22:02.057Z,1.60
2022-09-04T10:24:53.567Z,3.50
2022-09-04T10:27:43.293Z,5.10
2022-09-04T10:30:20.724Z,2.40
2022-09-04T10:33:08.018Z,7.50
2022-09-04T10:36:08.901Z,2.90
2022-09-04T10:42:09.232Z,4.70
2022-09-04T10:44:48.387Z,2.90
2022-09-04T10:47:24.645Z,3.40
2022-09-04T10:49:59.744Z,3.10
2022-09-04T10:52:33.404Z,3.10
2022-09-04T10:55:18.872Z,1.90
2022-09-04T10:58:00.184Z,4.30
2022-09-04T11:01:13.675Z,2.70
2022-09-04T11:04:14.410Z,2.00
2022-09-04T11:07:05.285Z,2.90
2022-09-04T11:09:35.083Z,2.10
2022-09-04T11:12:13.996Z,2.10
2022-09-04T11:14:44.281Z,2.10
2022-09-04T11:17:28.352Z,1.40
2022-09-04T11:20:18.564Z,2.10
2022-09-04T11:23:12.336Z,3.10
2022-09-04T11:26:08.139Z,2.30
2022-09-04T11:28:44.336Z,2.60
2022-09-04T11:31:35.579Z,2.80
2022-09-04T11:34:20.331Z,1.90
2022-09-04T11:37:09.891Z,4.50
2022-09-04T11:39:58.558Z,6.80
2022-09-04T11:42:29.888Z,2.00
2022-09-04T11:45:16.860Z,2.30
2022-09-04T11:48:05.485Z,3.20
2022-09-04T11:50:56.413Z,2.60
2022-09-04T11:53:47.231Z,4.50
2022-09-04T11:56:55.403Z,1.30
2022-09-04T12:00:12.218Z,2.90
2022-09-04T12:02:57.783Z,1.60
2022-09-04T12:05:39.458Z,6.50
2022-09-04T12:08:31.645Z,11.10
2022-09-04T12:11:18.611Z,9.80
2022-09-04T12:13:47.919Z,5.00
2022-09-04T12:16:18.244Z,6.20
2022-09-04T12:19:13.587Z,8.10
2022-09-04T12:22:01.481Z,6.80
2022-09-04T12:24:28.218Z,4.10
2022-09-04T12:27:07.831Z,4.70
2022-09-04T12:29:55.831Z,6.50
2022-09-04T12:32:42.594Z,3.00
2022-09-04T12:35:31.619Z,2.80
2022-09-04T12:38:24.570Z,3.40
2022-09-04T12:40:58.486Z,7.20
2022-09-04T12:43:50.041Z,2.30
2022-09-04T12:46:29.009Z,3.70
2022-09-04T12:49:01.798Z,3.10
2022-09-04T12:51:43.746Z,1.40
2022-09-04T12:54:38.629Z,4.90
2022-09-04T12:57:25.866Z,3.10
2022-09-04T13:00:02.001Z,3.20
2022-09-04T13:02:35.715Z,4.10
2022-09-04T13:05:21.715Z,4.30
2022-09-04T13:08:11.727Z,2.40
2022-09-04T13:10:53.698Z,2.30
2022-09-04T13:13:33.931Z,1.50
2022-09-04T13:16:17.302Z,2.20
2022-09-04T13:19:08.552Z,2.70
2022-09-04T13:21:41.154Z,2.90
2022-09-04T13:24:19.648Z,2.90
2022-09-04T13:27:09.189Z,5.20
2022-09-04T13:30:06.899Z,2.10
2022-09-04T13:32:46.581Z,1.50
2022-09-04T13:35:19.958Z,4.90
2022-09-04T13:38:05.695Z,2.40
2022-09-04T13:40:38.202Z,2.20
2022-09-04T13:43:08.800Z,4.20
2022-09-04T13:45:44.226Z,3.40
2022-09-04T13:48:26.609Z,2.40
2022-09-04T13:50:55.808Z,2.80
2022-09-04T13:53:28.574Z,1.50
2022-09-04T13:55:58.343Z,2.40
2022-09-04T13:58:38.491Z,3.30
2022-09-04T14:01:09.830Z,2.00
2022-09-04T14:03:51.489Z,2.10
2022-09-04T14:06:20.862Z,3.30
2022-09-04T14:09:04.449Z,4.20
2022-09-04T14:12:10.461Z,2.80
2022-09-04T14:15:30.805Z,2.90
2022-09-04T14:18:45.339Z,2.00
2022-09-04T14:21:58.093Z,1.80
2022-09-04T14:24:32.885Z,2.00
2022-09-04T14:27:25.551Z,1.90
2022-09-04T14:30:17.196Z,2.40
2022-09-04T14:32:57.706Z,5.40
2022-09-04T14:35:28.373Z,2.80
2022-09-04T14:38:16.160Z,4.00
2022-09-04T14:40:49.196Z,4.50
2022-09-04T14:43:22.293Z,3.90
2022-09-04T14:46:06.931Z,2.80
2022-09-04T14:48:40.558Z,2.20
2022-09-04T14:51:22.577Z,1.60
2022-09-04T14:53:51.825Z,3.30
2022-09-04T14:56:31.720Z,2.30
2022-09-04T14:59:21.324Z,3.60
2022-09-04T15:05:03.426Z,2.50
2022-09-04T15:07:42.384Z,2.40
2022-09-04T15:10:24.332Z,2.20
2022-09-04T15:13:00.250Z,5.10
2022-09-04T15:15:36.062Z,1.70
2022-09-04T15:18:40.003Z,2.60
2022-09-04T15:21:19.404Z,2.80
2022-09-04T15:24:01.248Z,3.80
2022-09-04T15:26:40.676Z,3.30
2022-09-04T15:29:32.155Z,7.10
2022-09-04T15:32:12.295Z,2.30
2022-09-04T15:34:41.439Z,2.40
2022-09-04T15:37:22.527Z,2.30
2022-09-04T15:40:04.311Z,2.20
2022-09-04T15:43:03.913Z,3.00
2022-09-04T15:45:50.906Z,3.70
2022-09-04T15:48:40.964Z,4.60
2022-09-04T15:51:35.494Z,5.40
2022-09-04T15:54:13.245Z,5.70
2022-09-04T15:56:52.597Z,2.50
2022-09-04T15:59:22.468Z,3.80
2022-09-04T16:02:00.612Z,4.40
2022-09-04T16:05:03.342Z,2.30
2022-09-04T16:07:40.368Z,3.90
2022-09-04T16:12:56.856Z,5.10
2022-09-04T16:15:40.853Z,5.20
2022-09-04T16:18:37.768Z,2.70
2022-09-04T16:21:05.596Z,7.80
2022-09-04T16:23:34.349Z,5.90
2022-09-04T16:26:10.273Z,5.10
2022-09-04T16:28:45.573Z,16.00
2022-09-04T16:31:30.855Z,13.50
2022-09-04T16:34:26.973Z,20.00
2022-09-04T16:37:01.926Z,18.40
2022-09-04T16:39:36.356Z,23.50
2022-09-04T16:42:25.298Z,25.30
2022-09-04T16:45:05.900Z,55.90
2022-09-04T16:47:54.566Z,76.60
2022-09-04T16:50:40.174Z,101.70
2022-09-04T16:53:23.443Z,66.20
2022-09-04T16:55:58.743Z,72.80
2022-09-04T16:58:40.029Z,44.30
2022-09-04T17:01:14.703Z,63.00
2022-09-04T17:04:12.653Z,54.60
2022-09-04T17:06:59.296Z,43.10
2022-09-04T17:09:29.094Z,53.50
2022-09-04T17:11:58.757Z,49.50
2022-09-04T17:14:30.939Z,45.50
2022-09-04T17:17:35.458Z,35.90
2022-09-04T17:20:06.630Z,55.40
2022-09-04T17:28:57.472Z,48.70
2022-09-04T17:29:12.272Z,47.80
2022-09-04T17:29:14.174Z,52.20
2022-09-04T17:31:28.773Z,42.70
2022-09-04T17:40:44.054Z,61.30
2022-09-04T17:40:46.826Z,50.00
2022-09-04T17:40:50.300Z,42.90
2022-09-04T17:43:23.329Z,47.40
2022-09-04T17:46:20.740Z,55.50
2022-09-04T17:48:47.566Z,55.50
2022-09-04T17:53:47.244Z,71.90
2022-09-04T17:56:26.585Z,73.10
2022-09-04T17:59:17.724Z,73.50
2022-09-04T18:01:50.760Z,65.80
2022-09-04T18:04:32.214Z,72.80
2022-09-04T18:07:30.084Z,57.00
2022-09-04T18:10:23.843Z,44.40
2022-09-04T18:12:57.718Z,45.20
2022-09-04T18:15:35.704Z,44.20
2022-09-04T18:18:12.380Z,35.10
2022-09-04T18:20:53.503Z,37.00
2022-09-04T18:23:51.217Z,37.00
2022-09-04T18:26:41.518Z,35.70
2022-09-04T18:32:55.715Z,28.30
2022-09-04T18:37:06.780Z,23.40
2022-09-04T18:37:26.905Z,23.70
2022-09-04T18:39:10.022Z,46.90
2022-09-04T18:50:23.952Z,50.30
2022-09-04T18:50:35.117Z,57.50
2022-09-04T18:50:40.105Z,50.00
2022-09-04T18:51:14.616Z,51.80
2022-09-04T18:53:49.078Z,47.60
2022-09-04T18:56:20.947Z,72.00
2022-09-04T18:59:18.895Z,48.70
2022-09-04T19:01:52.381Z,41.20
2022-09-04T19:04:40.862Z,40.00
2022-09-04T19:07:31.896Z,48.70
2022-09-04T19:10:04.185Z,45.10
2022-09-04T19:12:49.928Z,45.30
2022-09-04T19:15:45.839Z,29.70
2022-09-04T19:18:17.753Z,48.20
2022-09-04T19:20:48.377Z,38.50
2022-09-04T19:23:22.590Z,39.50
2022-09-04T19:25:54.791Z,32.20
2022-09-04T19:28:39.696Z,38.40
2022-09-04T19:31:17.731Z,38.40
2022-09-04T19:34:09.483Z,38.40
2022-09-04T19:36:54.852Z,46.20
2022-09-04T19:45:12.508Z,45.00
2022-09-04T19:46:07.204Z,43.30
2022-09-04T19:46:15.176Z,39.30
2022-09-04T19:48:29.687Z,45.70
2022-09-04T19:53:19.617Z,46.30
2022-09-04T19:53:52.830Z,40.80
2022-09-04T19:57:32.720Z,36.10
2022-09-04T20:00:43.208Z,37.90
2022-09-04T20:03:01.875Z,80.10
2022-09-04T20:05:32.849Z,56.00
2022-09-04T20:08:16.787Z,35.20
2022-09-04T20:11:05.898Z,36.40
2022-09-04T20:13:39.839Z,37.40
2022-09-04T20:16:10.562Z,39.00
2022-09-04T20:18:42.277Z,38.70
2022-09-04T20:21:18.164Z,38.00
2022-09-04T20:23:56.121Z,42.60
2022-09-04T20:26:30.784Z,35.50
2022-09-04T20:29:23.307Z,36.00
2022-09-04T20:31:56.805Z,39.30
2022-09-04T20:34:25.386Z,35.00
2022-09-04T20:37:13.651Z,41.50
2022-09-04T20:39:43.602Z,38.30
2022-09-04T20:42:17.941Z,34.80
2022-09-04T20:46:35.573Z,40.80
2022-09-04T20:52:42.793Z,39.70
2022-09-04T20:52:58.850Z,40.60
2022-09-04T20:54:33.874Z,39.70
2022-09-04T21:01:32.503Z,47.50
2022-09-04T21:03:19.970Z,41.80
2022-09-04T21:03:28.253Z,46.50
2022-09-04T21:06:04.338Z,43.80
2022-09-04T21:08:52.332Z,40.50
2022-09-04T21:11:41.657Z,50.40
2022-09-04T21:14:21.402Z,47.90
2022-09-04T21:17:34.189Z,38.80
2022-09-04T21:20:17.184Z,40.70
2022-09-04T21:22:49.444Z,43.30
2022-09-04T21:25:36.191Z,38.40
2022-09-04T21:28:26.785Z,38.70
2022-09-04T21:30:58.624Z,39.80
2022-09-04T21:34:02.380Z,33.90
2022-09-04T21:36:47.146Z,36.60
2022-09-04T21:39:33.616Z,37.80
2022-09-04T21:42:22.229Z,30.80
2022-09-04T21:45:00.066Z,33.00
2022-09-04T21:47:44.943Z,31.30
2022-09-04T21:50:49.856Z,32.60
2022-09-04T21:53:26.830Z,30.10
2022-09-04T22:02:30.400Z,31.30
2022-09-04T22:02:44.437Z,35.30
2022-09-04T22:02:54.324Z,31.00
2022-09-04T22:05:41.514Z,36.30
2022-09-04T22:13:00.079Z,33.60
2022-09-04T22:13:41.681Z,35.20
2022-09-04T22:14:31.332Z,29.40
2022-09-04T22:17:27.387Z,36.70
2022-09-04T22:20:07.017Z,30.40
2022-09-04T22:22:58.565Z,30.60
2022-09-04T22:25:47.955Z,26.90
2022-09-04T22:28:25.801Z,30.00
2022-09-04T22:31:30.608Z,31.70
2022-09-04T22:34:26.119Z,24.90
2022-09-04T22:37:08.045Z,29.20
2022-09-04T22:40:06.255Z,28.70
2022-09-04T22:42:37.191Z,22.60
2022-09-04T22:45:41.250Z,25.90
2022-09-04T22:48:23.354Z,30.00
2022-09-04T22:50:58.540Z,24.10
2022-09-04T22:53:44.089Z,22.40
2022-09-04T22:56:24.563Z,23.20
2022-09-04T22:59:27.424Z,23.40
2022-09-04T23:02:14.082Z,21.90
2022-09-04T23:04:53.265Z,24.90
2022-09-04T23:11:39.997Z,21.40
2022-09-04T23:13:52.005Z,23.00
2022-09-04T23:13:56.457Z,20.90
2022-09-04T23:16:17.577Z,21.60
2022-09-04T23:21:36.056Z,26.20
2022-09-04T23:26:41.675Z,23.10
2022-09-04T23:26:49.397Z,22.20
2022-09-04T23:28:28.058Z,21.50
2022-09-04T23:31:07.064Z,20.30
2022-09-04T23:33:50.135Z,18.20
2022-09-04T23:36:53.732Z,17.80
2022-09-04T23:39:48.374Z,17.30
2022-09-04T23:42:45.271Z,20.10
2022-09-04T23:45:34.719Z,17.30
2022-09-04T23:48:04.855Z,17.90
2022-09-04T23:53:40.975Z,19.40
2022-09-04T23:56:19.854Z,17.10
2022-09-04T23:59:33.324Z,17.40
